KSDY/SDY METAR and TAF weather

Enter ICAO airport designator
Station Type Date Time Source
KSDY METAR 2021/05/10 01:56 UTC NOAA

KSDY 100156Z AUTO 30004KT 10SM CLR 10/M01 A3019 RMK AO2 SLP241 T01001006


Station Type Date Time Source
KSDY Decoded METAR 2021/05/10 01:56 UTC NOAA

Sidney-Richland, MT, United States (KSDY) 47-42N 104-12W
May 09, 2021 - 09:56 PM EDT / 2021.05.10 0156 UTC
Wind: from the WNW (300 degrees) at 5 MPH (4 KT):0
Visibility: 10 mile(s):0
Sky conditions: clear
Temperature: 50.0 F (10.0 C)
Dew Point: 30.9 F (-0.6 C)
Relative Humidity: 47%
Pressure (altimeter): 30.19 in. Hg (1022 hPa)
ob: KSDY 100156Z AUTO 30004KT 10SM CLR 10/M01 A3019 RMK AO2 SLP241 T01001006
cycle: 2

Station Type Date Time Source
KSDY TAF 2021/05/09 18:22 UTC NOAA

TAF KSDY 091720Z 0918/1018 11015KT P6SM OVC015
FM092100 10010KT P6SM OVC050
FM100300 VRB06KT P6SM SCT200

Example: see airport list